ADDS METAR Data INFO
IDs: Format: Raw Decoded Include TAF

Data at: 2020 UTC 18 Jul 2018

KEHO 182015Z AUTO 10004KT 10SM CLR 31/18 A2994 RMK AO2 T03100176
KEHO 181955Z AUTO 06004KT 10SM CLR 31/17 A2996 RMK AO2 T03090168
KEHO 181935Z AUTO 04003KT 10SM CLR 31/17 A2996 RMK AO2 T03100166
KEHO 181915Z AUTO 07004KT 10SM CLR 30/16 A2997 RMK AO2 T03040163
KEHO 181855Z AUTO 06005KT 10SM CLR 30/16 A2997 RMK AO2 T03040162
KEHO 181835Z AUTO 07004KT 10SM CLR 30/17 A2997 RMK AO2 T03010169
KEHO 181815Z AUTO 00000KT 10SM CLR 30/15 A2998 RMK AO2 T02980154
KEHO 181755Z AUTO 10004KT 10SM CLR 30/16 A2999 RMK AO2 60001 T02960160 10299 20216
KEHO 181735Z AUTO 03005KT 10SM CLR 30/16 A2999 RMK AO2 T02960161
KEHO 181715Z AUTO 04004KT 10SM CLR 29/17 A3000 RMK AO2 T02940168
KEHO 181655Z AUTO 07005KT 10SM CLR 29/18 A3000 RMK AO2 T02930176
KEHO 181635Z AUTO 36005KT 10SM CLR 29/17 A3001 RMK AO2 T02910174
KEHO 181615Z AUTO 06004KT 10SM CLR 29/18 A3002 RMK AO2 T02870177
KEHO 181555Z AUTO 02005KT 10SM CLR 29/18 A3002 RMK AO2 T02860180
KEHO 181535Z AUTO 02007KT 10SM CLR 28/19 A3002 RMK AO2 T02830187
KEHO 181515Z AUTO 01005KT 10SM CLR 28/19 A3003 RMK AO2 T02790192
KEHO 181455Z AUTO 03005KT 10SM CLR 28/20 A3003 RMK AO2 60001 T02770197
KEHO 181435Z AUTO 02008KT 10SM CLR 27/20 A3002 RMK AO2 T02740199
KEHO 181415Z AUTO 07006KT 10SM CLR 27/20 A3003 RMK AO2 T02700200
KEHO 181355Z AUTO 02005KT 10SM CLR 27/20 A3002 RMK AO2 P0001 T02650204
KEHO 181335Z AUTO 02005KT 10SM CLR 26/21 A3002 RMK AO2 P0001 T02580205
KEHO 181315Z AUTO 03006KT 10SM CLR 25/21 A3002 RMK AO2 T02470207
KEHO 181255Z AUTO 02004KT 10SM CLR 25/21 A3001 RMK AO2 T02460210
KEHO 181235Z AUTO 03003KT 10SM CLR 24/21 A3000 RMK AO2 T02380214
KEHO 181215Z AUTO 00000KT 10SM CLR 22/21 A3000 RMK AO2 T02200212
KEHO 181155Z AUTO 30003KT 10SM CLR 22/21 A2999 RMK AO2 70006 T02160210 10218 20205
KEHO 181135Z AUTO 00000KT 10SM CLR 21/21 A2998 RMK AO2 T02120207
KEHO 181115Z AUTO 00000KT 7SM CLR 21/21 A2997 RMK AO2 T02100206
KEHO 181055Z AUTO 00000KT 10SM CLR 22/21 A2996 RMK AO2 T02150205
KEHO 181035Z AUTO 00000KT 10SM CLR 21/20 A2996 RMK AO2 T02060202
KEHO 181015Z AUTO 00000KT 10SM CLR 21/20 A2995 RMK AO2 T02050203
KEHO 180955Z AUTO 00000KT 10SM CLR 21/20 A2994 RMK AO2 T02100201
KEHO 180935Z AUTO 00000KT 10SM CLR 21/21 A2994 RMK AO2 T02080205
KEHO 180915Z AUTO 00000KT 10SM CLR 21/21 A2994 RMK AO2 T02100206
KEHO 180855Z AUTO 00000KT 7SM CLR 21/21 A2993 RMK AO2 T02100206
KEHO 180835Z AUTO 04003KT 7SM CLR 21/21 A2993 RMK AO2 T02060205
KEHO 180815Z AUTO 00000KT 10SM CLR 21/21 A2993 RMK AO2 T02130211
KEHO 180755Z AUTO 00000KT 7SM CLR 21/21 A2993 RMK AO2 T02100208
KEHO 180735Z AUTO 00000KT 10SM CLR 22/21 A2993 RMK AO2 T02160212
KEHO 180715Z AUTO 00000KT 7SM CLR 22/21 A2993 RMK AO2 T02150212
KEHO 180655Z AUTO 00000KT 7SM CLR 21/21 A2994 RMK AO2 T02140212
KEHO 180635Z AUTO 03003KT 10SM CLR 22/22 A2994 RMK AO2 T02180215
KEHO 180615Z AUTO 32004KT 7SM CLR 22/21 A2995 RMK AO2 T02150213
KEHO 180555Z AUTO 00000KT 7SM CLR 22/21 A2995 RMK AO2 T02160214 10257 20215 403140215
KEHO 180535Z AUTO 00000KT 10SM CLR 22/22 A2996 RMK AO2 T02200215
KEHO 180515Z AUTO 00000KT 10SM CLR 22/22 A2996 RMK AO2 T02200215
KEHO 180455Z AUTO 00000KT 10SM CLR 22/22 A2996 RMK AO2 T02220215
KEHO 180435Z AUTO 00000KT 10SM CLR 23/22 A2996 RMK AO2 T02250216
KEHO 180415Z AUTO 00000KT 10SM CLR 22/22 A2995 RMK AO2 T02220216
KEHO 180355Z AUTO 00000KT 10SM CLR 22/22 A2995 RMK AO2 T02230217
KEHO 180335Z AUTO 00000KT 10SM CLR 23/22 A2995 RMK AO2 T02260217
KEHO 180315Z AUTO 00000KT 10SM CLR 23/22 A2996 RMK AO2 T02260216
KEHO 180255Z AUTO 00000KT 10SM CLR 23/22 A2997 RMK AO2 T02300216
KEHO 180235Z AUTO 00000KT 10SM CLR 23/22 A2996 RMK AO2 T02330216
KEHO 180215Z AUTO 00000KT 10SM CLR 24/22 A2995 RMK AO2 T02350216
KEHO 180155Z AUTO 21003KT 10SM CLR 24/22 A2995 RMK AO2 T02370215
KEHO 180135Z AUTO 00000KT 10SM CLR 24/22 A2995 RMK AO2 T02410216
KEHO 180115Z AUTO 00000KT 10SM SCT120 25/22 A2994 RMK AO2 T02490216
KEHO 180055Z AUTO 00000KT 10SM BKN120 25/22 A2994 RMK AO2 T02470215
KEHO 180035Z AUTO 22004KT 10SM SCT120 25/22 A2994 RMK AO2 T02530223
KEHO 180015Z AUTO 00000KT 10SM SCT120 26/23 A2994 RMK AO2 T02560227
KEHO 172355Z AUTO 00000KT 10SM CLR 26/23 A2993 RMK AO2 60006 T02570234 10314 20230
KEHO 172335Z AUTO 00000KT 10SM CLR 26/23 A2993 RMK AO2 T02560234
KEHO 172315Z AUTO 21008KT 10SM CLR 26/23 A2993 RMK AO2 T02560226
KEHO 172255Z AUTO 22006KT 10SM CLR 25/22 A2992 RMK AO2 T02480217
KEHO 172235Z AUTO 22004KT 10SM CLR 24/22 A2992 RMK AO2 T02400217
KEHO 172215Z AUTO 20005KT 10SM CLR 24/21 A2992 RMK AO2 T02400208
KEHO 172155Z AUTO 17007KT 10SM CLR 24/21 A2992 RMK AO2 T02350210
KEHO 172135Z AUTO 18005KT 10SM CLR 23/21 A2994 RMK AO2 T02330211
KEHO 172115Z AUTO 16006KT 10SM SCT120 24/21 A2994 RMK AO2 T02350213
KEHO 172055Z AUTO 17007KT 10SM -RA SCT034 SCT090 OVC120 23/22 A2994 RMK AO2 P0006 60006 T02320217
KEHO 172035Z AUTO 22009KT 5SM -RA SCT023 BKN032 OVC090 24/21 A2992 RMK AO2 P0006 T02360209
KEHO 172015Z AUTO 31012G16KT 10SM BKN036 BKN055 OVC090 27/22 A2992 RMK AO2 T02650215
KEHO 171955Z AUTO 21004KT 10SM SCT038 SCT055 SCT080 31/23 A2990 RMK AO2 T03070226
KEHO 171935Z AUTO 18004KT 10SM CLR 31/23 A2991 RMK AO2 T03130226
KEHO 171915Z AUTO 20005KT 10SM CLR 31/23 A2993 RMK AO2 T03080229
KEHO 171855Z AUTO 18004KT 10SM SCT036 30/23 A2994 RMK AO2 T03020229
KEHO 171835Z AUTO 17005KT 10SM CLR 30/23 A2995 RMK AO2 T03010225
KEHO 171815Z AUTO 23005KT 10SM CLR 30/23 A2996 RMK AO2 T02990227
KEHO 171755Z AUTO 16003KT 10SM SCT027 SCT034 30/22 A2997 RMK AO2 T02960222 10298 20226
KEHO 171735Z AUTO 19006KT 10SM SCT029 SCT040 BKN046 29/23 A2997 RMK AO2 T02940228
KEHO 171715Z AUTO 21003KT 10SM SCT029 SCT042 30/22 A2998 RMK AO2 T02950221
KEHO 171655Z AUTO 00000KT 10SM SCT022 SCT028 SCT110 28/22 A2999 RMK AO2 T02790221
KEHO 171635Z AUTO 19004KT 10SM SCT022 SCT110 28/22 A2999 RMK AO2 T02840222
KEHO 171615Z AUTO 22003KT 10SM SCT018 SCT100 28/23 A3000 RMK AO2 T02800226
KEHO 171555Z AUTO 25003KT 10SM SCT018 SCT065 BKN100 27/23 A3001 RMK AO2 T02700227
KEHO 171535Z AUTO 28004KT 10SM BKN018 BKN065 27/22 A3002 RMK AO2 T02660224
KEHO 171515Z AUTO 24005KT 10SM OVC016 26/23 A3002 RMK AO2 T02630226
KEHO 171455Z AUTO 27004KT 7SM BKN014 26/22 A3001 RMK AO2 T02560222
KEHO 171435Z AUTO 26003KT 10SM BKN012 25/22 A3002 RMK AO2 T02510221
KEHO 171415Z AUTO 24005KT 10SM OVC010 25/22 A3003 RMK AO2 T02460222
KEHO 171355Z AUTO 20004KT 10SM OVC010 24/22 A3003 RMK AO2 T02440223
KEHO 171335Z AUTO 00000KT 10SM OVC008 24/22 A3004 RMK AO2 T02360221
KEHO 171315Z AUTO 23005KT 7SM OVC008 23/22 A3004 RMK AO2 T02320222
KEHO 171255Z AUTO 24004KT 7SM OVC008 23/22 A3003 RMK AO2 T02310222
KEHO 171235Z AUTO 23005KT 7SM OVC008 23/22 A3003 RMK AO2 T02310222
KEHO 171215Z AUTO 25005KT 7SM OVC008 23/22 A3002 RMK AO2 T02270220
KEHO 171155Z AUTO 21004KT 7SM BKN004 OVC008 23/22 A3001 RMK AO2 70023 T02250220 10225 20220
KEHO 171135Z AUTO 23003KT 5SM BR BKN004 OVC008 23/22 A3001 RMK AO2 T02250221
KEHO 171115Z AUTO 23004KT 5SM BR OVC004 22/22 A3001 RMK AO2 T02230220
KEHO 171055Z AUTO 23004KT 3SM BR OVC004 22/22 A3001 RMK AO2 T02200220
KEHO 171035Z AUTO 22005KT 3SM BR OVC002 22/22 A3000 RMK AO2 T02200220
KEHO 171015Z AUTO 24004KT 1 1/2SM BR OVC002 22/22 A3000 RMK AO2 T02200220
KEHO 170955Z AUTO 23003KT 1 3/4SM BR OVC002 22/22 A3000 RMK AO2 T02200220
KEHO 170935Z AUTO 00000KT 1SM BR OVC002 22/22 A2998 RMK AO2 T02200220
KEHO 170915Z AUTO 19003KT 1SM BR OVC002 22/22 A2998 RMK AO2 T02210221
KEHO 170855Z AUTO 00000KT 1 1/2SM BR OVC002 22/22 A2998 RMK AO2 T02200220
KEHO 170835Z AUTO 22004KT 2 1/2SM BR OVC002 22/22 A2999 RMK AO2 T02210220